createdAt,value
2018-01-11T00:02:20.577Z,81.90
2018-01-11T00:04:53.128Z,82.00
2018-01-11T00:07:26.476Z,81.90
2018-01-11T00:09:59.197Z,82.10
2018-01-11T00:12:32.421Z,82.00
2018-01-11T00:15:06.079Z,82.10
2018-01-11T00:17:38.664Z,82.00
2018-01-11T00:20:11.384Z,82.00
2018-01-11T00:22:44.740Z,82.50
2018-01-11T00:25:17.667Z,82.20
2018-01-11T00:27:50.995Z,82.30
2018-01-11T00:30:23.469Z,82.40
2018-01-11T00:32:56.033Z,82.20
2018-01-11T00:35:28.686Z,82.20
2018-01-11T00:38:01.179Z,82.20
2018-01-11T00:40:33.612Z,82.10
2018-01-11T00:43:06.869Z,82.10
2018-01-11T00:45:39.742Z,82.10
2018-01-11T00:48:12.413Z,82.20
2018-01-11T00:50:44.964Z,82.20
2018-01-11T00:53:18.355Z,82.10
2018-01-11T00:55:51.726Z,82.30
2018-01-11T00:58:25.182Z,82.30
2018-01-11T01:00:58.568Z,82.30
2018-01-11T01:03:31.964Z,82.40
2018-01-11T01:06:04.464Z,82.50
2018-01-11T01:08:37.091Z,82.40
2018-01-11T01:11:09.700Z,82.40
2018-01-11T01:13:42.262Z,82.40
2018-01-11T01:16:15.543Z,82.50
2018-01-11T01:18:48.136Z,82.40
2018-01-11T01:21:20.735Z,83.20
2018-01-11T01:23:53.208Z,82.50
2018-01-11T01:26:25.675Z,82.40
2018-01-11T01:28:58.449Z,82.50
2018-01-11T01:31:31.716Z,82.60
2018-01-11T01:34:04.432Z,82.70
2018-01-11T01:36:37.106Z,82.60
2018-01-11T01:39:09.781Z,82.60
2018-01-11T01:41:42.432Z,82.50
2018-01-11T01:44:15.224Z,82.50
2018-01-11T01:46:47.827Z,82.40
2018-01-11T01:49:20.543Z,82.40
2018-01-11T01:51:53.016Z,82.50
2018-01-11T01:54:25.830Z,82.50
2018-01-11T01:56:59.082Z,82.50
2018-01-11T01:59:31.969Z,82.50
2018-01-11T02:02:04.600Z,82.50
2018-01-11T02:04:37.868Z,82.60
2018-01-11T02:07:11.477Z,82.60
2018-01-11T02:09:44.258Z,82.40
2018-01-11T02:12:17.574Z,82.60
2018-01-11T02:14:50.136Z,82.30
2018-01-11T02:17:22.817Z,82.40
2018-01-11T02:19:55.413Z,82.60
2018-01-11T02:22:28.552Z,82.50
2018-01-11T02:25:01.231Z,82.30
2018-01-11T02:27:33.603Z,82.40
2018-01-11T02:30:06.026Z,82.60
2018-01-11T02:32:38.471Z,82.40
2018-01-11T02:35:11.014Z,82.60
2018-01-11T02:37:43.471Z,82.40
2018-01-11T02:40:16.064Z,82.40
2018-01-11T02:42:48.826Z,82.50
2018-01-11T02:45:21.638Z,82.40
2018-01-11T02:47:54.175Z,82.40
2018-01-11T02:50:27.017Z,82.40
2018-01-11T02:52:59.694Z,82.60
2018-01-11T02:55:32.440Z,82.30
2018-01-11T02:58:05.448Z,82.50
2018-01-11T03:00:38.278Z,82.40
2018-01-11T03:03:12.014Z,82.30
2018-01-11T03:05:44.676Z,82.90
2018-01-11T03:08:17.581Z,82.30
2018-01-11T03:10:50.980Z,82.40
2018-01-11T03:13:24.575Z,82.30
2018-01-11T03:15:57.263Z,82.40
2018-01-11T03:18:29.966Z,82.10
2018-01-11T03:21:02.443Z,82.20
2018-01-11T03:23:34.852Z,82.30
2018-01-11T03:26:07.446Z,82.30
2018-01-11T03:28:40.144Z,82.30
2018-01-11T03:31:13.408Z,82.40
2018-01-11T03:33:46.306Z,82.50
2018-01-11T03:36:19.502Z,82.40
2018-01-11T03:38:52.678Z,82.30
2018-01-11T03:41:25.419Z,82.40
2018-01-11T03:43:58.846Z,82.50
2018-01-11T03:46:32.248Z,82.30
2018-01-11T03:49:05.014Z,82.30
2018-01-11T03:51:37.544Z,82.40
2018-01-11T03:54:10.101Z,82.40
2018-01-11T03:56:42.991Z,82.20
2018-01-11T03:59:15.652Z,82.20
2018-01-11T04:01:48.260Z,82.10
2018-01-11T04:04:20.756Z,82.20
2018-01-11T04:06:54.132Z,82.20
2018-01-11T04:09:27.605Z,82.00
2018-01-11T04:12:00.230Z,82.10
2018-01-11T04:14:33.181Z,82.00
2018-01-11T04:17:06.402Z,82.10
2018-01-11T04:19:39.212Z,82.00
2018-01-11T04:22:11.639Z,81.90
2018-01-11T04:24:44.258Z,82.00
2018-01-11T04:27:17.680Z,81.90
2018-01-11T04:29:51.052Z,82.10
2018-01-11T04:32:23.684Z,81.80
2018-01-11T04:34:57.128Z,81.90
2018-01-11T04:37:30.324Z,81.80
2018-01-11T04:40:02.997Z,81.90
2018-01-11T04:42:35.520Z,81.90
2018-01-11T04:45:08.914Z,81.90
2018-01-11T04:47:41.319Z,81.60
2018-01-11T04:50:13.888Z,81.80
2018-01-11T04:52:46.346Z,81.80
2018-01-11T04:55:19.801Z,81.90
2018-01-11T04:57:52.345Z,81.70
2018-01-11T05:00:24.879Z,81.90
2018-01-11T05:02:57.540Z,81.90
2018-01-11T05:05:30.818Z,81.90
2018-01-11T05:08:04.249Z,82.00
2018-01-11T05:10:37.783Z,82.30
2018-01-11T05:13:10.462Z,82.20
2018-01-11T05:15:43.962Z,82.10
2018-01-11T05:18:16.747Z,82.10
2018-01-11T05:20:50.190Z,82.10
2018-01-11T05:23:23.227Z,82.00
2018-01-11T05:25:56.682Z,82.40
2018-01-11T05:28:29.320Z,81.80
2018-01-11T05:31:02.525Z,81.70
2018-01-11T05:33:35.687Z,81.60
2018-01-11T05:36:09.800Z,81.70
2018-01-11T05:38:42.504Z,81.70
2018-01-11T05:41:15.056Z,81.80
2018-01-11T05:43:48.435Z,81.90
2018-01-11T05:46:20.928Z,81.70
2018-01-11T05:48:53.337Z,81.70
2018-01-11T05:51:25.875Z,81.70
2018-01-11T05:53:58.292Z,81.60
2018-01-11T05:56:30.843Z,81.90
2018-01-11T05:59:03.316Z,81.70
2018-01-11T06:01:37.478Z,81.40
2018-01-11T06:04:10.167Z,82.30
2018-01-11T06:06:43.521Z,81.50
2018-01-11T06:09:17.007Z,81.70
2018-01-11T06:11:49.677Z,81.60
2018-01-11T06:14:22.978Z,82.30
2018-01-11T06:16:55.963Z,81.70
2018-01-11T06:19:30.179Z,82.00
2018-01-11T06:22:03.082Z,82.00
2018-01-11T06:24:35.686Z,81.90
2018-01-11T06:27:08.158Z,82.10
2018-01-11T06:29:40.830Z,81.90
2018-01-11T06:32:14.229Z,81.90
2018-01-11T06:34:47.994Z,81.90
2018-01-11T06:37:22.748Z,81.90
2018-01-11T06:39:56.126Z,81.60
2018-01-11T06:42:28.963Z,81.60
2018-01-11T06:45:01.464Z,81.70
2018-01-11T06:47:34.389Z,81.80
2018-01-11T06:50:06.951Z,81.90
2018-01-11T06:52:39.504Z,82.10
2018-01-11T06:55:12.822Z,82.10
2018-01-11T06:57:47.000Z,82.30
2018-01-11T07:00:19.679Z,82.30
2018-01-11T07:02:53.133Z,82.00
2018-01-11T07:05:26.507Z,81.90
2018-01-11T07:07:59.973Z,82.20
2018-01-11T07:10:32.452Z,82.10
2018-01-11T07:13:05.908Z,82.10
2018-01-11T07:15:38.544Z,81.80
2018-01-11T07:18:11.849Z,81.70
2018-01-11T07:20:44.458Z,81.70
2018-01-11T07:23:17.656Z,81.40
2018-01-11T07:25:50.930Z,81.50
2018-01-11T07:28:24.424Z,80.70
2018-01-11T07:30:58.396Z,81.20
2018-01-11T07:33:31.622Z,81.20
2018-01-11T07:36:05.291Z,80.90
2018-01-11T07:38:38.609Z,80.40
2018-01-11T07:41:11.504Z,79.90
2018-01-11T07:43:44.456Z,79.70
2018-01-11T07:46:18.228Z,79.80
2018-01-11T07:48:51.053Z,79.90
2018-01-11T07:51:23.915Z,79.90
2018-01-11T07:53:57.711Z,80.00
2018-01-11T07:56:30.780Z,80.00
2018-01-11T07:59:04.186Z,79.90
2018-01-11T08:01:37.699Z,80.00
2018-01-11T08:04:10.844Z,80.00
2018-01-11T08:06:43.665Z,80.00
2018-01-11T08:09:16.128Z,79.90
2018-01-11T08:11:48.686Z,80.00
2018-01-11T08:14:21.208Z,80.00
2018-01-11T08:16:53.879Z,80.00
2018-01-11T08:19:27.831Z,79.70
2018-01-11T08:22:00.633Z,79.80
2018-01-11T08:24:33.916Z,79.60
2018-01-11T08:27:06.469Z,79.30
2018-01-11T08:29:38.868Z,79.50
2018-01-11T08:32:11.402Z,80.20
2018-01-11T08:34:44.630Z,79.90
2018-01-11T08:37:17.812Z,79.90
2018-01-11T08:39:51.501Z,79.80
2018-01-11T08:42:24.257Z,79.80
2018-01-11T08:44:57.694Z,80.40
2018-01-11T08:47:30.810Z,80.40
2018-01-11T08:50:04.272Z,79.70
2018-01-11T08:52:37.401Z,79.70
2018-01-11T08:55:10.825Z,79.50
2018-01-11T08:57:44.144Z,79.40
2018-01-11T09:00:17.256Z,79.30
2018-01-11T09:02:50.054Z,79.40
2018-01-11T09:05:23.223Z,81.50
2018-01-11T09:07:55.962Z,80.00
2018-01-11T09:10:28.958Z,78.10
2018-01-11T09:13:02.176Z,78.70
2018-01-11T09:15:35.864Z,78.50
2018-01-11T09:18:09.361Z,78.00
2018-01-11T09:20:42.142Z,78.00
2018-01-11T09:23:15.331Z,77.50
2018-01-11T09:25:47.974Z,77.40
2018-01-11T09:28:21.555Z,78.80
2018-01-11T09:30:54.673Z,78.40
2018-01-11T09:33:27.609Z,78.10
2018-01-11T09:36:01.024Z,77.20
2018-01-11T09:38:33.570Z,77.30
2018-01-11T09:41:06.027Z,77.40
2018-01-11T09:43:39.567Z,77.90
2018-01-11T09:46:12.972Z,78.10
2018-01-11T09:48:46.112Z,78.70
2018-01-11T09:51:18.810Z,78.60
2018-01-11T09:53:51.282Z,78.10
2018-01-11T09:56:24.660Z,78.30
2018-01-11T09:58:58.780Z,77.40
2018-01-11T10:01:32.169Z,77.70
2018-01-11T10:04:04.728Z,77.60
2018-01-11T10:06:38.760Z,77.80
2018-01-11T10:09:11.333Z,77.80
2018-01-11T10:11:43.807Z,77.90
2018-01-11T10:14:18.150Z,77.90
2018-01-11T10:16:50.679Z,77.90
2018-01-11T10:19:23.180Z,78.20
2018-01-11T10:21:55.679Z,78.40
2018-01-11T10:24:28.343Z,78.40
2018-01-11T10:27:00.886Z,78.20
2018-01-11T10:29:33.362Z,77.60
2018-01-11T10:32:05.947Z,77.70
2018-01-11T10:34:38.401Z,77.80
2018-01-11T10:37:10.818Z,77.30
2018-01-11T10:39:43.263Z,77.20
2018-01-11T10:42:16.542Z,77.50
2018-01-11T10:44:49.069Z,76.60
2018-01-11T10:47:21.602Z,76.40
2018-01-11T10:49:54.125Z,76.60
2018-01-11T10:52:28.418Z,76.60
2018-01-11T10:55:00.976Z,76.60
2018-01-11T10:57:33.398Z,76.30
2018-01-11T11:00:06.770Z,76.40
2018-01-11T11:02:45.255Z,76.60
2018-01-11T11:05:17.656Z,76.10
2018-01-11T11:07:50.410Z,76.10
2018-01-11T11:10:24.600Z,75.10
2018-01-11T11:12:57.378Z,75.50
2018-01-11T11:15:29.911Z,74.80
2018-01-11T11:18:02.600Z,75.80
2018-01-11T11:20:35.116Z,76.10
2018-01-11T11:23:08.135Z,75.70
2018-01-11T11:25:40.727Z,75.80
2018-01-11T11:28:13.816Z,74.90
2018-01-11T11:30:46.392Z,74.20
2018-01-11T11:33:19.086Z,74.70
2018-01-11T11:35:52.435Z,75.60
2018-01-11T11:38:25.853Z,76.00
2018-01-11T11:40:59.208Z,76.10
2018-01-11T11:43:32.486Z,76.60
2018-01-11T11:46:05.998Z,76.60
2018-01-11T11:48:38.772Z,76.50
2018-01-11T11:51:11.244Z,76.60
2018-01-11T11:53:44.505Z,76.70
2018-01-11T11:56:17.996Z,76.70
2018-01-11T11:58:51.242Z,76.80
2018-01-11T12:01:24.084Z,76.50
2018-01-11T12:03:57.407Z,77.60
2018-01-11T12:06:30.810Z,76.30
2018-01-11T12:09:04.302Z,76.80
2018-01-11T12:11:37.030Z,77.10
2018-01-11T12:14:10.129Z,76.80
2018-01-11T12:16:43.277Z,76.70
2018-01-11T12:19:15.845Z,77.00
2018-01-11T12:21:49.416Z,75.70
2018-01-11T12:24:22.678Z,75.70
2018-01-11T12:26:55.791Z,75.90
2018-01-11T12:29:29.365Z,75.90
2018-01-11T12:32:03.520Z,76.20
2018-01-11T12:34:36.413Z,76.20
2018-01-11T12:37:09.584Z,76.30
2018-01-11T12:39:42.400Z,76.60
2018-01-11T12:42:15.318Z,76.90
2018-01-11T12:44:48.079Z,77.00
2018-01-11T12:47:20.687Z,76.60
2018-01-11T12:49:53.217Z,76.10
2018-01-11T12:52:26.601Z,75.70
2018-01-11T12:54:59.107Z,75.70
2018-01-11T12:57:32.461Z,75.60
2018-01-11T13:00:06.068Z,74.90
2018-01-11T13:02:38.709Z,75.00
2018-01-11T13:05:11.032Z,75.20
2018-01-11T13:07:44.375Z,75.90
2018-01-11T13:10:17.622Z,75.90
2018-01-11T13:12:50.009Z,76.00
2018-01-11T13:15:23.464Z,76.40
2018-01-11T13:17:56.017Z,76.60
2018-01-11T13:20:30.119Z,76.10
2018-01-11T13:23:03.093Z,76.10
2018-01-11T13:25:36.429Z,76.10
2018-01-11T13:28:09.292Z,76.10
2018-01-11T13:30:43.196Z,76.30
2018-01-11T13:33:16.389Z,76.30
2018-01-11T13:35:49.169Z,76.40
2018-01-11T13:38:23.583Z,76.30
2018-01-11T13:40:55.983Z,76.30
2018-01-11T13:43:28.934Z,75.90
2018-01-11T13:46:01.766Z,75.90
2018-01-11T13:48:35.170Z,75.80
2018-01-11T13:51:08.894Z,75.20
2018-01-11T13:53:41.913Z,75.20
2018-01-11T13:56:15.818Z,74.90
2018-01-11T13:58:48.632Z,74.90
2018-01-11T14:01:21.126Z,74.90
2018-01-11T14:03:53.635Z,74.80
2018-01-11T14:06:26.992Z,74.40
2018-01-11T14:09:00.448Z,74.50
2018-01-11T14:11:32.928Z,73.90
2018-01-11T14:14:06.424Z,74.20
2018-01-11T14:16:39.080Z,74.10
2018-01-11T14:19:13.258Z,73.60
2018-01-11T14:21:45.912Z,73.60
2018-01-11T14:24:18.376Z,74.10
2018-01-11T14:26:51.010Z,74.40
2018-01-11T14:29:24.315Z,74.30
2018-01-11T14:31:57.730Z,74.60
2018-01-11T14:34:30.814Z,74.60
2018-01-11T14:37:03.584Z,74.50
2018-01-11T14:39:36.723Z,73.90
2018-01-11T14:42:10.473Z,73.90
2018-01-11T14:44:43.698Z,73.90
2018-01-11T14:47:16.960Z,74.30
2018-01-11T14:49:49.689Z,74.60
2018-01-11T14:52:22.446Z,74.30
2018-01-11T14:54:55.168Z,74.40
2018-01-11T14:57:27.908Z,74.70
2018-01-11T15:00:00.762Z,74.50
2018-01-11T15:02:33.414Z,74.70
2018-01-11T15:05:06.296Z,74.60
2018-01-11T15:07:38.834Z,74.40
2018-01-11T15:10:11.485Z,74.30
2018-01-11T15:12:45.539Z,74.80
2018-01-11T15:15:18.505Z,74.80
2018-01-11T15:17:51.058Z,75.20
2018-01-11T15:20:23.456Z,75.50
2018-01-11T15:22:56.927Z,75.70
2018-01-11T15:25:29.424Z,76.00
2018-01-11T15:28:02.825Z,76.50
2018-01-11T15:30:36.084Z,76.80
2018-01-11T15:33:08.607Z,77.40
2018-01-11T15:35:41.252Z,77.70
2018-01-11T15:38:14.636Z,77.20
2018-01-11T15:40:48.000Z,77.40
2018-01-11T15:43:21.340Z,77.60
2018-01-11T15:45:54.266Z,77.50
2018-01-11T15:48:26.991Z,77.50
2018-01-11T15:50:59.517Z,77.60
2018-01-11T15:53:32.396Z,77.60
2018-01-11T15:56:04.972Z,78.00
2018-01-11T15:58:37.645Z,78.00
2018-01-11T16:01:10.629Z,77.70
2018-01-11T16:03:43.990Z,77.70
2018-01-11T16:06:16.568Z,77.70
2018-01-11T16:08:49.180Z,78.20
2018-01-11T16:11:21.619Z,78.60
2018-01-11T16:13:54.227Z,78.80
2018-01-11T16:16:27.564Z,78.90
2018-01-11T16:18:59.990Z,79.30
2018-01-11T16:21:32.503Z,79.50
2018-01-11T16:24:05.143Z,79.80
2018-01-11T16:26:38.511Z,80.00
2018-01-11T16:29:11.038Z,80.40
2018-01-11T16:31:43.631Z,80.60
2018-01-11T16:34:16.274Z,80.40
2018-01-11T16:36:49.542Z,81.20
2018-01-11T16:39:22.272Z,80.60
2018-01-11T16:41:55.640Z,80.60
2018-01-11T16:44:28.078Z,80.50
2018-01-11T16:47:01.263Z,80.60
2018-01-11T16:49:34.031Z,80.60
2018-01-11T16:52:08.182Z,81.30
2018-01-11T16:54:41.074Z,80.50
2018-01-11T16:57:14.473Z,80.60
2018-01-11T16:59:47.509Z,80.60
2018-01-11T17:02:20.900Z,80.60
2018-01-11T17:04:53.987Z,80.60
2018-01-11T17:07:26.897Z,80.80
2018-01-11T17:09:59.579Z,80.70
2018-01-11T17:12:32.422Z,80.60
2018-01-11T17:15:05.978Z,80.80
2018-01-11T17:17:39.430Z,80.80
2018-01-11T17:20:13.166Z,81.70
2018-01-11T17:22:46.141Z,81.00
2018-01-11T17:25:18.954Z,81.20
2018-01-11T17:27:52.175Z,81.00
2018-01-11T17:30:24.948Z,80.90
2018-01-11T17:32:57.793Z,80.80
2018-01-11T17:35:31.164Z,80.60
2018-01-11T17:38:04.619Z,80.60
2018-01-11T17:40:37.192Z,80.40
2018-01-11T17:43:11.341Z,80.40
2018-01-11T17:45:44.120Z,80.20
2018-01-11T17:48:17.395Z,80.40
2018-01-11T17:50:50.127Z,80.40
2018-01-11T17:53:22.577Z,80.40
2018-01-11T17:55:55.092Z,80.50
2018-01-11T17:58:29.254Z,80.40
2018-01-11T18:01:02.789Z,80.50
2018-01-11T18:03:35.481Z,80.50
2018-01-11T18:06:08.024Z,80.40
2018-01-11T18:08:40.651Z,80.50
2018-01-11T18:11:13.509Z,80.70
2018-01-11T18:13:45.893Z,80.70
2018-01-11T18:16:19.138Z,80.70
2018-01-11T18:18:51.623Z,80.80
2018-01-11T18:21:24.414Z,81.10
2018-01-11T18:23:58.109Z,81.10
2018-01-11T18:26:31.301Z,81.10
2018-01-11T18:29:05.361Z,80.90
2018-01-11T18:31:39.069Z,80.90
2018-01-11T18:34:12.577Z,80.90
2018-01-11T18:36:45.285Z,81.00
2018-01-11T18:39:18.215Z,81.20
2018-01-11T18:41:51.050Z,81.60
2018-01-11T18:44:24.698Z,82.10
2018-01-11T18:46:58.372Z,82.40
2018-01-11T18:49:30.977Z,82.50
2018-01-11T18:52:03.477Z,82.30
2018-01-11T18:54:36.812Z,82.20
2018-01-11T18:57:09.311Z,82.60
2018-01-11T18:59:43.575Z,82.60
2018-01-11T19:02:16.927Z,82.70
2018-01-11T19:04:49.620Z,82.70
2018-01-11T19:07:23.732Z,82.90
2018-01-11T19:09:57.062Z,82.90
2018-01-11T19:12:30.354Z,82.90
2018-01-11T19:15:03.459Z,82.90
2018-01-11T19:17:36.779Z,83.20
2018-01-11T19:20:10.944Z,83.40
2018-01-11T19:22:45.929Z,83.30
2018-01-11T19:25:21.856Z,83.30
2018-01-11T19:27:57.456Z,83.20
2018-01-11T19:30:34.593Z,83.50
2018-01-11T19:33:09.793Z,83.50
2018-01-11T19:35:46.134Z,83.60
2018-01-11T19:38:21.423Z,83.30
2018-01-11T19:40:57.467Z,83.70
2018-01-11T19:43:32.508Z,83.70
2018-01-11T19:46:08.027Z,84.40
2018-01-11T19:48:43.233Z,84.30
2018-01-11T19:51:18.499Z,84.20
2018-01-11T19:53:54.122Z,84.50
2018-01-11T19:56:29.429Z,84.60
2018-01-11T19:59:04.556Z,84.80
2018-01-11T20:01:40.016Z,84.60
2018-01-11T20:04:16.433Z,84.80
2018-01-11T20:06:52.156Z,84.80
2018-01-11T20:09:27.363Z,84.50
2018-01-11T20:12:04.199Z,84.20
2018-01-11T20:14:39.966Z,84.20
2018-01-11T20:17:15.478Z,84.50
2018-01-11T20:19:50.598Z,84.60
2018-01-11T20:22:26.257Z,84.50
2018-01-11T20:25:01.499Z,84.40
2018-01-11T20:27:37.184Z,84.30
2018-01-11T20:30:11.731Z,84.20
2018-01-11T20:32:47.809Z,84.00
2018-01-11T20:35:22.615Z,84.20
2018-01-11T20:37:58.616Z,84.10
2018-01-11T20:40:34.943Z,84.30
2018-01-11T20:43:10.870Z,84.40
2018-01-11T20:45:47.769Z,84.50
2018-01-11T20:48:23.594Z,84.50
2018-01-11T20:50:59.097Z,84.40
2018-01-11T20:53:34.474Z,84.40
2018-01-11T20:56:10.271Z,85.10
2018-01-11T20:58:46.955Z,84.60
2018-01-11T21:01:22.198Z,84.60
2018-01-11T21:03:58.765Z,85.00
2018-01-11T21:06:34.653Z,85.00
2018-01-11T21:09:10.093Z,85.20
2018-01-11T21:11:45.792Z,85.60
2018-01-11T21:14:22.046Z,84.50
2018-01-11T21:17:01.263Z,84.60
2018-01-11T21:19:37.259Z,84.60
2018-01-11T21:22:13.273Z,84.80
2018-01-11T21:24:48.884Z,84.90
2018-01-11T21:27:24.409Z,84.70
2018-01-11T21:30:00.742Z,84.30
2018-01-11T21:32:36.359Z,84.30
2018-01-11T21:35:11.691Z,84.20
2018-01-11T21:37:46.988Z,84.10
2018-01-11T21:40:22.625Z,84.30
2018-01-11T21:42:56.927Z,85.10
2018-01-11T21:45:32.920Z,84.80
2018-01-11T21:48:07.598Z,85.10
2018-01-11T21:50:41.709Z,85.80
2018-01-11T21:53:15.743Z,85.20
2018-01-11T21:55:50.341Z,85.10
2018-01-11T21:58:23.632Z,85.10
2018-01-11T22:00:57.488Z,84.90
2018-01-11T22:03:31.329Z,84.60
2018-01-11T22:06:05.060Z,84.50
2018-01-11T22:08:38.126Z,84.50
2018-01-11T22:11:11.321Z,84.70
2018-01-11T22:13:43.909Z,84.60
2018-01-11T22:16:17.423Z,84.70
2018-01-11T22:18:50.271Z,84.70
2018-01-11T22:21:23.885Z,84.30
2018-01-11T22:23:56.839Z,84.60
2018-01-11T22:26:30.099Z,84.80
2018-01-11T22:29:02.744Z,85.00
2018-01-11T22:31:35.954Z,85.00
2018-01-11T22:34:09.535Z,84.80
2018-01-11T22:36:42.932Z,84.80
2018-01-11T22:39:15.697Z,84.80
2018-01-11T22:41:49.098Z,85.00
2018-01-11T22:44:21.696Z,85.20
2018-01-11T22:46:55.113Z,85.30
2018-01-11T22:49:28.577Z,85.10
2018-01-11T22:52:01.228Z,85.10
2018-01-11T22:54:34.472Z,85.20
2018-01-11T22:57:08.156Z,84.90
2018-01-11T22:59:41.124Z,84.70
2018-01-11T23:02:15.002Z,84.50
2018-01-11T23:04:48.334Z,84.40
2018-01-11T23:07:21.046Z,84.20
2018-01-11T23:09:54.434Z,84.50
2018-01-11T23:12:28.503Z,84.80
2018-01-11T23:15:02.342Z,84.90
2018-01-11T23:17:35.487Z,84.90
2018-01-11T23:20:08.627Z,84.80
2018-01-11T23:22:41.244Z,84.60
2018-01-11T23:25:14.249Z,84.50
2018-01-11T23:27:47.265Z,84.50
2018-01-11T23:30:20.703Z,84.30
2018-01-11T23:32:53.382Z,83.80
2018-01-11T23:35:26.714Z,84.40
2018-01-11T23:37:59.355Z,84.40
2018-01-11T23:40:31.944Z,84.20
2018-01-11T23:43:06.070Z,84.40
2018-01-11T23:45:39.638Z,84.60
2018-01-11T23:48:12.944Z,84.50
2018-01-11T23:50:45.549Z,84.50
2018-01-11T23:53:18.062Z,84.60
2018-01-11T23:55:50.648Z,84.60
2018-01-11T23:58:23.094Z,84.30
